Pays
Station

 

Conditions  météo  pour  Buckland, Buckland Airport  -  Etats-Unis    Etats-Unis

  
-16 °C
    
 
 

METAR pour Buckland, Buckland Airport :

PABL 142356Z AUTO 00000KT 10SM CLR M16/M19 A3021 RMK AO2 SLP232 T11561189 11139 21217 50006 FZRANO

 

Voici le bulletin pour Buckland, Buckland Airport - Etats-Unis.
 
Le bulletin a été fait il y a 17 minutes, à 23:56 UTC .
Le vent était calme.
 
La température était de -16 °C, avec un point de rosée à -19 °C.
La pression atmosphérique était de 1023 hPa.
L'humidité relative était de 77.5%.
 
Le ciel était clair.
 
La visibilité globale était de 16.1 kilomètres.
 

 
 
 

Pays :   A   B   C   D   E   F   G   H   I   J   K   L   M   N   O   P   Q   R   S   T   U   V   W   Y   Z

 

Partenaires :  Info Météo avec Met'info
Météo Marine avec MeteoMarine.net
Infos Site  |  Infos Légales  |  Crédits  |  Confidentialité
Contactez-nous  |  Ajouter aux favoris
© 2013-2018 METAR - Tous droits réservés